createdAt,value
2019-05-13T00:00:10.038Z,2.60
2019-05-13T00:02:43.608Z,2.60
2019-05-13T00:05:14.671Z,2.60
2019-05-13T00:07:45.721Z,2.50
2019-05-13T00:10:16.337Z,2.60
2019-05-13T00:12:47.137Z,2.50
2019-05-13T00:15:18.003Z,2.50
2019-05-13T00:17:48.731Z,2.50
2019-05-13T00:20:19.708Z,2.30
2019-05-13T00:22:50.671Z,2.20
2019-05-13T00:25:21.531Z,2.00
2019-05-13T00:27:53.691Z,2.00
2019-05-13T00:30:25.906Z,2.00
2019-05-13T00:32:56.913Z,1.90
2019-05-13T00:35:27.765Z,1.80
2019-05-13T00:37:58.606Z,1.80
2019-05-13T00:40:29.247Z,1.70
2019-05-13T00:42:59.762Z,1.50
2019-05-13T00:45:30.418Z,1.50
2019-05-13T00:48:01.138Z,1.60
2019-05-13T00:50:33.544Z,1.50
2019-05-13T00:53:04.476Z,1.50
2019-05-13T00:55:35.928Z,1.40
2019-05-13T00:58:06.508Z,1.30
2019-05-13T01:00:36.896Z,1.30
2019-05-13T01:03:07.343Z,1.30
2019-05-13T01:05:37.946Z,1.30
2019-05-13T01:08:09.711Z,1.10
2019-05-13T01:10:40.325Z,1.10
2019-05-13T01:13:10.860Z,1.20
2019-05-13T01:15:44.087Z,1.30
2019-05-13T01:18:14.435Z,1.20
2019-05-13T01:20:45.319Z,1.10
2019-05-13T01:23:16.095Z,1.10
2019-05-13T01:25:47.088Z,1.10
2019-05-13T01:28:17.602Z,1.00
2019-05-13T01:30:48.124Z,1.10
2019-05-13T01:33:18.829Z,1.00
2019-05-13T01:35:49.616Z,0.90
2019-05-13T01:38:20.298Z,1.00
2019-05-13T01:40:53.966Z,1.00
2019-05-13T01:43:24.645Z,1.00
2019-05-13T01:45:55.493Z,1.00
2019-05-13T01:48:26.400Z,1.10
2019-05-13T01:50:57.053Z,1.00
2019-05-13T01:53:27.622Z,0.90
2019-05-13T01:56:03.635Z,0.70
2019-05-13T01:58:34.103Z,0.70
2019-05-13T02:01:05.299Z,0.80
2019-05-13T02:03:36.634Z,0.80
2019-05-13T02:06:07.305Z,0.70
2019-05-13T02:08:38.110Z,0.70
2019-05-13T02:11:08.644Z,0.70
2019-05-13T02:13:39.949Z,0.60
2019-05-13T02:16:10.752Z,0.60
2019-05-13T02:18:41.335Z,0.60
2019-05-13T02:21:13.805Z,0.60
2019-05-13T02:23:44.427Z,0.50
2019-05-13T02:26:15.048Z,0.60
2019-05-13T02:28:45.588Z,0.60
2019-05-13T02:31:22.961Z,0.50
2019-05-13T02:33:48.640Z,0.50
2019-05-13T02:36:22.533Z,0.50
2019-05-13T02:38:53.155Z,0.50
2019-05-13T02:41:23.836Z,0.40
2019-05-13T02:43:54.562Z,0.50
2019-05-13T02:46:25.269Z,0.50
2019-05-13T02:48:55.742Z,0.40
2019-05-13T02:51:26.267Z,0.40
2019-05-13T02:53:57.131Z,0.40
2019-05-13T02:56:27.894Z,0.30
2019-05-13T02:58:58.661Z,0.40
2019-05-13T03:01:32.867Z,0.40
2019-05-13T03:04:03.030Z,0.40
2019-05-13T03:06:33.676Z,0.30
2019-05-13T03:09:06.903Z,0.30
2019-05-13T03:11:37.925Z,0.30
2019-05-13T03:14:08.535Z,0.20
2019-05-13T03:16:47.885Z,0.20
2019-05-13T03:19:18.424Z,0.10
2019-05-13T03:21:52.113Z,0.20
2019-05-13T03:24:22.733Z,0.10
2019-05-13T03:26:53.738Z,0.20
2019-05-13T03:29:26.669Z,0.20
2019-05-13T03:31:57.368Z,0.20
2019-05-13T03:34:28.024Z,0.20
2019-05-13T03:36:58.765Z,0.30
2019-05-13T03:39:33.093Z,0.20
2019-05-13T03:42:04.357Z,0.30
2019-05-13T03:44:35.232Z,0.20
2019-05-13T03:47:06.224Z,0.20
2019-05-13T03:49:36.899Z,0.30
2019-05-13T03:52:08.172Z,0.30
2019-05-13T03:54:43.316Z,0.40
2019-05-13T03:57:12.742Z,0.40
2019-05-13T03:59:43.852Z,0.40
2019-05-13T04:02:14.614Z,0.50
2019-05-13T04:04:45.482Z,0.50
2019-05-13T04:07:16.739Z,0.50
2019-05-13T04:09:47.198Z,0.50
2019-05-13T04:12:17.818Z,0.60
2019-05-13T04:14:48.414Z,0.70
2019-05-13T04:17:18.821Z,0.90
2019-05-13T04:19:53.012Z,1.10
2019-05-13T04:22:23.327Z,1.10
2019-05-13T04:24:55.494Z,1.30
2019-05-13T04:27:27.510Z,1.40
2019-05-13T04:29:58.529Z,1.70
2019-05-13T04:32:33.305Z,1.80
2019-05-13T04:35:03.754Z,2.10
2019-05-13T04:37:34.274Z,2.30
2019-05-13T04:40:06.153Z,2.50
2019-05-13T04:42:36.939Z,2.60
2019-05-13T04:45:07.987Z,2.70
2019-05-13T04:47:38.602Z,2.90
2019-05-13T04:50:09.231Z,3.10
2019-05-13T04:52:42.393Z,3.30
2019-05-13T04:55:16.879Z,3.50
2019-05-13T04:57:47.600Z,3.70
2019-05-13T05:00:24.123Z,3.90
2019-05-13T05:03:33.421Z,4.20
2019-05-13T05:06:33.467Z,4.50
2019-05-13T05:09:12.555Z,4.70
2019-05-13T05:12:28.464Z,5.00
2019-05-13T05:15:42.843Z,5.30
2019-05-13T05:18:48.460Z,5.60
2019-05-13T05:21:25.124Z,5.70
2019-05-13T05:25:03.972Z,5.90
2019-05-13T05:28:08.030Z,5.90
2019-05-13T05:31:04.129Z,5.90
2019-05-13T05:34:11.630Z,6.00
2019-05-13T05:37:47.073Z,6.10
2019-05-13T05:40:30.467Z,6.10
2019-05-13T05:42:54.974Z,6.20
2019-05-13T05:45:25.979Z,6.20
2019-05-13T05:47:58.218Z,6.20
2019-05-13T05:50:31.892Z,6.30
2019-05-13T05:53:05.404Z,6.30
2019-05-13T05:55:42.714Z,6.40
2019-05-13T05:58:15.062Z,6.40
2019-05-13T06:00:48.975Z,6.40
2019-05-13T06:03:22.455Z,6.50
2019-05-13T06:05:55.501Z,6.60
2019-05-13T06:08:27.478Z,6.70
2019-05-13T06:11:00.744Z,6.70
2019-05-13T06:13:32.071Z,6.70
2019-05-13T06:16:03.348Z,6.80
2019-05-13T06:18:36.075Z,6.90
2019-05-13T06:21:45.762Z,6.90
2019-05-13T06:24:16.965Z,7.20
2019-05-13T06:26:48.239Z,7.30
2019-05-13T06:29:22.340Z,7.50
2019-05-13T06:31:53.298Z,7.70
2019-05-13T06:34:24.509Z,7.80
2019-05-13T06:36:55.485Z,7.80
2019-05-13T06:39:27.678Z,7.90
2019-05-13T06:41:58.993Z,8.00
2019-05-13T06:44:31.637Z,8.10
2019-05-13T06:47:02.979Z,8.20
2019-05-13T06:49:34.094Z,8.40
2019-05-13T06:52:25.357Z,8.50
2019-05-13T06:54:56.589Z,8.60
2019-05-13T06:57:27.308Z,8.60
2019-05-13T07:00:01.574Z,8.70
2019-05-13T07:02:33.792Z,8.80
2019-05-13T07:05:07.334Z,8.70
2019-05-13T07:07:38.759Z,8.90
2019-05-13T07:10:12.513Z,9.00
2019-05-13T07:12:42.374Z,9.00
2019-05-13T07:15:13.278Z,9.10
2019-05-13T07:17:44.360Z,9.10
2019-05-13T07:20:15.518Z,9.20
2019-05-13T07:22:46.626Z,9.30
2019-05-13T07:25:22.039Z,9.50
2019-05-13T07:27:51.861Z,9.40
2019-05-13T07:30:42.501Z,9.60
2019-05-13T07:33:13.511Z,9.80
2019-05-13T07:35:46.101Z,9.80
2019-05-13T07:38:18.469Z,9.90
2019-05-13T07:40:53.039Z,9.80
2019-05-13T07:43:25.056Z,9.80
2019-05-13T07:46:06.338Z,9.80
2019-05-13T07:48:37.034Z,9.80
2019-05-13T07:54:54.404Z,10.00
2019-05-13T07:57:25.435Z,9.90
2019-05-13T08:00:02.533Z,10.10
2019-05-13T08:02:34.164Z,10.10
2019-05-13T08:05:06.435Z,10.20
2019-05-13T08:07:37.392Z,10.20
2019-05-13T08:10:11.386Z,10.10
2019-05-13T08:12:41.446Z,10.20
2019-05-13T08:15:14.461Z,10.20
2019-05-13T08:17:47.688Z,10.40
2019-05-13T08:20:21.910Z,10.20
2019-05-13T08:22:52.142Z,10.20
2019-05-13T08:25:23.398Z,10.20
2019-05-13T08:27:57.576Z,10.10
2019-05-13T08:30:31.835Z,10.20
2019-05-13T08:33:15.430Z,10.40
2019-05-13T08:35:52.474Z,10.50
2019-05-13T08:38:37.781Z,10.50
2019-05-13T08:41:09.746Z,10.50
2019-05-13T08:43:46.586Z,10.60
2019-05-13T08:46:21.695Z,10.70
2019-05-13T08:48:54.978Z,10.80
2019-05-13T08:55:21.446Z,10.90
2019-05-13T08:57:55.279Z,11.00
2019-05-13T09:00:49.338Z,11.10
2019-05-13T09:03:25.604Z,11.20
2019-05-13T09:05:57.434Z,11.10
2019-05-13T09:08:31.972Z,11.10
2019-05-13T09:11:05.428Z,11.20
2019-05-13T09:13:44.134Z,11.40
2019-05-13T09:16:21.295Z,11.30
2019-05-13T09:18:55.676Z,11.30
2019-05-13T09:21:27.636Z,11.30
2019-05-13T09:24:02.411Z,11.40
2019-05-13T09:26:38.251Z,11.50
2019-05-13T09:29:14.650Z,11.60
2019-05-13T09:31:46.963Z,11.60
2019-05-13T09:34:22.621Z,11.70
2019-05-13T09:36:54.370Z,11.70
2019-05-13T09:39:26.013Z,11.70
2019-05-13T09:41:58.164Z,11.80
2019-05-13T09:44:32.405Z,11.90
2019-05-13T09:47:04.710Z,12.10
2019-05-13T09:49:35.731Z,12.10
2019-05-13T09:56:06.383Z,12.00
2019-05-13T09:58:37.246Z,12.20
2019-05-13T10:01:08.791Z,12.10
2019-05-13T10:03:53.921Z,12.30
2019-05-13T10:06:15.082Z,12.30
2019-05-13T10:08:52.227Z,12.30
2019-05-13T10:11:30.696Z,12.60
2019-05-13T10:14:02.216Z,12.80
2019-05-13T10:16:42.561Z,12.90
2019-05-13T10:19:15.057Z,12.70
2019-05-13T10:21:47.997Z,12.80
2019-05-13T10:24:19.235Z,12.80
2019-05-13T10:26:51.918Z,12.90
2019-05-13T10:29:25.333Z,13.10
2019-05-13T10:31:57.909Z,13.00
2019-05-13T10:34:32.041Z,13.10
2019-05-13T10:37:07.296Z,13.10
2019-05-13T10:39:38.438Z,13.10
2019-05-13T10:42:12.651Z,12.90
2019-05-13T10:44:45.448Z,12.80
2019-05-13T10:47:17.216Z,13.20
2019-05-13T10:49:52.539Z,13.20
2019-05-13T10:52:27.887Z,13.20
2019-05-13T10:55:01.913Z,13.30
2019-05-13T10:57:42.406Z,13.40
2019-05-13T11:00:18.169Z,13.50
2019-05-13T11:02:54.949Z,13.70
2019-05-13T11:05:32.404Z,13.60
2019-05-13T11:08:02.675Z,13.70
2019-05-13T11:10:33.887Z,13.60
2019-05-13T11:13:06.127Z,13.50
2019-05-13T11:15:45.392Z,13.70
2019-05-13T11:18:19.483Z,13.50
2019-05-13T11:20:55.130Z,13.50
2019-05-13T11:23:27.677Z,13.60
2019-05-13T11:26:15.207Z,13.60
2019-05-13T11:28:48.395Z,13.80
2019-05-13T11:31:32.843Z,13.90
2019-05-13T11:34:04.294Z,13.90
2019-05-13T11:36:35.764Z,14.00
2019-05-13T11:39:12.928Z,14.00
2019-05-13T11:41:51.467Z,14.10
2019-05-13T11:44:25.746Z,14.10
2019-05-13T11:46:56.961Z,14.10
2019-05-13T11:49:28.113Z,14.10
2019-05-13T11:51:59.020Z,14.30
2019-05-13T11:54:30.241Z,14.30
2019-05-13T11:57:06.123Z,14.40
2019-05-13T11:59:42.384Z,14.60
2019-05-13T12:02:13.617Z,14.80
2019-05-13T12:04:45.116Z,14.50
2019-05-13T12:07:17.792Z,14.40
2019-05-13T12:09:54.307Z,14.50
2019-05-13T12:12:33.607Z,14.30
2019-05-13T12:15:26.562Z,14.30
2019-05-13T12:17:35.755Z,14.50
2019-05-13T12:20:12.017Z,14.80
2019-05-13T12:22:42.601Z,14.90
2019-05-13T12:25:14.216Z,14.90
2019-05-13T12:27:46.462Z,14.80
2019-05-13T12:30:22.561Z,14.90
2019-05-13T12:32:53.850Z,14.70
2019-05-13T12:35:26.885Z,14.90
2019-05-13T12:38:02.081Z,15.10
2019-05-13T12:40:34.057Z,15.30
2019-05-13T12:43:13.297Z,15.30
2019-05-13T12:45:45.096Z,15.10
2019-05-13T12:48:17.247Z,15.10
2019-05-13T12:50:48.955Z,15.50
2019-05-13T12:53:23.967Z,15.10
2019-05-13T12:55:57.067Z,15.00
2019-05-13T12:58:28.694Z,15.30
2019-05-13T13:01:01.493Z,15.60
2019-05-13T13:03:33.932Z,15.50
2019-05-13T13:08:51.010Z,15.70
2019-05-13T13:11:23.015Z,15.50
2019-05-13T13:13:59.450Z,15.50
2019-05-13T13:16:53.993Z,15.50
2019-05-13T13:19:44.221Z,15.30
2019-05-13T13:22:16.946Z,15.50
2019-05-13T13:25:07.474Z,15.30
2019-05-13T13:28:04.039Z,15.30
2019-05-13T13:30:23.137Z,15.70
2019-05-13T13:33:02.830Z,16.10
2019-05-13T13:35:35.685Z,15.80
2019-05-13T13:38:07.977Z,15.60
2019-05-13T13:40:45.693Z,16.00
2019-05-13T13:43:15.006Z,16.00
2019-05-13T13:46:07.284Z,16.10
2019-05-13T13:48:25.951Z,16.20
2019-05-13T13:50:58.412Z,16.10
2019-05-13T13:53:37.166Z,16.60
2019-05-13T13:56:07.886Z,16.70
2019-05-13T13:58:43.800Z,16.60
2019-05-13T14:01:19.902Z,16.70
2019-05-13T14:03:53.186Z,16.60
2019-05-13T14:07:13.205Z,15.70
2019-05-13T14:07:24.544Z,16.40
2019-05-13T14:09:02.082Z,16.50
2019-05-13T14:11:34.788Z,17.00
2019-05-13T14:14:08.201Z,17.40
2019-05-13T14:16:39.556Z,17.60
2019-05-13T14:19:11.698Z,17.70
2019-05-13T14:21:44.833Z,17.00
2019-05-13T14:24:39.196Z,17.10
2019-05-13T14:27:12.542Z,17.90
2019-05-13T14:29:49.169Z,18.00
2019-05-13T14:32:18.791Z,17.80
2019-05-13T14:34:52.607Z,17.80
2019-05-13T14:37:23.672Z,18.20
2019-05-13T14:39:54.645Z,18.60
2019-05-13T14:42:27.440Z,18.00
2019-05-13T14:44:58.737Z,17.80
2019-05-13T14:47:32.045Z,17.30
2019-05-13T14:50:06.222Z,16.70
2019-05-13T14:52:37.647Z,16.40
2019-05-13T14:55:13.952Z,16.70
2019-05-13T14:57:45.455Z,17.10
2019-05-13T15:00:22.138Z,17.20
2019-05-13T15:02:54.128Z,17.60
2019-05-13T15:05:28.447Z,17.50
2019-05-13T15:08:05.137Z,18.10
2019-05-13T15:10:38.492Z,18.20
2019-05-13T15:13:19.852Z,17.70
2019-05-13T15:15:54.037Z,17.20
2019-05-13T15:18:28.765Z,17.20
2019-05-13T15:21:12.108Z,17.80
2019-05-13T15:23:47.630Z,17.90
2019-05-13T15:26:39.166Z,17.80
2019-05-13T15:29:13.172Z,17.80
2019-05-13T15:31:46.866Z,18.40
2019-05-13T15:34:20.936Z,18.50
2019-05-13T15:36:58.844Z,18.80
2019-05-13T15:39:31.584Z,18.60
2019-05-13T15:42:03.428Z,18.60
2019-05-13T15:44:36.071Z,18.50
2019-05-13T15:47:22.206Z,18.00
2019-05-13T15:49:41.636Z,17.90
2019-05-13T15:52:13.057Z,17.90
2019-05-13T15:54:47.715Z,18.40
2019-05-13T15:57:22.290Z,18.70
2019-05-13T16:00:01.761Z,18.10
2019-05-13T16:02:31.925Z,17.90
2019-05-13T16:05:06.877Z,18.30
2019-05-13T16:07:52.556Z,18.70
2019-05-13T16:10:48.741Z,18.40
2019-05-13T16:13:27.470Z,18.20
2019-05-13T16:16:07.478Z,18.00
2019-05-13T16:18:42.190Z,17.70
2019-05-13T16:21:13.763Z,17.90
2019-05-13T16:23:45.172Z,18.20
2019-05-13T16:26:16.302Z,18.20
2019-05-13T16:28:47.761Z,18.50
2019-05-13T16:31:19.717Z,18.80
2019-05-13T16:33:52.201Z,18.60
2019-05-13T16:36:23.771Z,18.20
2019-05-13T16:38:55.307Z,18.10
2019-05-13T16:41:28.054Z,18.00
2019-05-13T16:44:00.063Z,18.00
2019-05-13T16:46:31.581Z,18.60
2019-05-13T16:49:03.255Z,19.30
2019-05-13T16:51:34.850Z,18.50
2019-05-13T16:54:06.797Z,18.00
2019-05-13T16:56:42.208Z,18.40
2019-05-13T16:59:13.931Z,18.70
2019-05-13T17:01:46.097Z,18.30
2019-05-13T17:04:18.302Z,18.50
2019-05-13T17:06:54.852Z,17.60
2019-05-13T17:10:25.491Z,17.70
2019-05-13T17:12:58.871Z,18.10
2019-05-13T17:15:31.183Z,18.60
2019-05-13T17:18:11.696Z,18.10
2019-05-13T17:20:41.453Z,19.00
2019-05-13T17:23:17.568Z,18.90
2019-05-13T17:26:07.877Z,18.90
2019-05-13T17:28:52.531Z,18.10
2019-05-13T17:31:24.756Z,18.10
2019-05-13T17:33:56.451Z,18.30
2019-05-13T17:36:29.538Z,18.80
2019-05-13T17:39:08.653Z,18.50
2019-05-13T17:41:44.128Z,18.00
2019-05-13T17:44:16.858Z,17.20
2019-05-13T17:46:48.346Z,17.70
2019-05-13T17:49:22.020Z,17.70
2019-05-13T17:52:02.139Z,17.70
2019-05-13T17:54:36.613Z,17.50
2019-05-13T17:57:12.400Z,17.90
2019-05-13T17:59:46.652Z,17.80
2019-05-13T18:02:18.384Z,17.90
2019-05-13T18:04:52.090Z,17.30
2019-05-13T18:07:25.943Z,17.60
2019-05-13T18:10:01.563Z,17.20
2019-05-13T18:12:33.323Z,16.90
2019-05-13T18:15:05.432Z,16.70
2019-05-13T18:17:45.028Z,17.00
2019-05-13T18:20:18.418Z,17.10
2019-05-13T18:22:53.767Z,17.20
2019-05-13T18:25:25.149Z,17.20
2019-05-13T18:27:57.199Z,16.40
2019-05-13T18:30:31.783Z,16.20
2019-05-13T18:33:04.889Z,16.30
2019-05-13T18:35:36.585Z,15.80
2019-05-13T18:38:08.138Z,15.80
2019-05-13T18:40:43.761Z,15.40
2019-05-13T18:43:33.022Z,15.10
2019-05-13T18:46:07.751Z,15.10
2019-05-13T18:48:58.043Z,14.50
2019-05-13T18:51:27.089Z,13.70
2019-05-13T18:54:02.076Z,12.60
2019-05-13T18:56:34.763Z,12.10
2019-05-13T18:59:09.147Z,11.70
2019-05-13T19:01:40.241Z,11.40
2019-05-13T19:04:15.931Z,11.20
2019-05-13T19:06:47.362Z,10.90
2019-05-13T19:09:21.814Z,10.70
2019-05-13T19:11:54.316Z,10.60
2019-05-13T19:14:31.721Z,10.40
2019-05-13T19:17:06.694Z,10.20
2019-05-13T19:19:38.259Z,10.20
2019-05-13T19:22:09.396Z,10.00
2019-05-13T19:24:41.665Z,9.90
2019-05-13T19:27:17.078Z,9.80
2019-05-13T19:29:48.985Z,9.70
2019-05-13T19:32:21.872Z,9.60
2019-05-13T19:34:58.440Z,9.50
2019-05-13T19:37:32.625Z,9.40
2019-05-13T19:40:13.705Z,9.40
2019-05-13T19:42:46.822Z,9.30
2019-05-13T19:45:21.789Z,9.20
2019-05-13T19:48:01.247Z,9.10
2019-05-13T19:50:33.315Z,9.10
2019-05-13T19:53:06.108Z,9.00
2019-05-13T19:55:41.446Z,8.80
2019-05-13T19:58:13.748Z,8.70
2019-05-13T20:00:45.713Z,8.60
2019-05-13T20:03:16.982Z,8.50
2019-05-13T20:05:51.298Z,8.40
2019-05-13T20:08:25.115Z,8.30
2019-05-13T20:10:58.423Z,8.20
2019-05-13T20:13:30.378Z,8.30
2019-05-13T20:16:02.646Z,8.10
2019-05-13T20:18:34.185Z,8.10
2019-05-13T20:21:06.534Z,8.00
2019-05-13T20:23:38.663Z,8.00
2019-05-13T20:27:06.115Z,7.80
2019-05-13T20:29:37.983Z,7.90
2019-05-13T20:32:11.837Z,7.70
2019-05-13T20:34:43.904Z,7.60
2019-05-13T20:37:14.888Z,7.60
2019-05-13T20:39:48.513Z,7.50
2019-05-13T20:42:19.402Z,7.50
2019-05-13T20:44:53.078Z,7.60
2019-05-13T20:47:24.168Z,7.40
2019-05-13T20:50:01.353Z,7.40
2019-05-13T20:52:27.513Z,7.40
2019-05-13T20:54:58.351Z,7.40
2019-05-13T20:57:32.404Z,7.40
2019-05-13T21:00:03.298Z,7.30
2019-05-13T21:02:36.102Z,7.20
2019-05-13T21:05:06.855Z,7.20
2019-05-13T21:07:37.541Z,7.00
2019-05-13T21:10:08.917Z,7.10
2019-05-13T21:12:41.788Z,7.10
2019-05-13T21:15:13.007Z,7.00
2019-05-13T21:17:44.414Z,6.90
2019-05-13T21:20:21.544Z,6.70
2019-05-13T21:22:51.578Z,6.70
2019-05-13T21:25:21.807Z,6.60
2019-05-13T21:27:54.473Z,6.60
2019-05-13T21:30:25.178Z,6.60
2019-05-13T21:32:58.868Z,6.40
2019-05-13T21:35:32.581Z,6.40
2019-05-13T21:38:02.959Z,6.20
2019-05-13T21:40:34.083Z,6.20
2019-05-13T21:43:07.878Z,6.00
2019-05-13T21:45:38.654Z,6.10
2019-05-13T21:48:11.045Z,6.00
2019-05-13T21:50:44.859Z,5.90
2019-05-13T21:53:15.548Z,6.00
2019-05-13T21:55:48.112Z,6.00
2019-05-13T21:58:18.898Z,5.80
2019-05-13T22:00:51.945Z,5.70
2019-05-13T22:03:25.890Z,5.40
2019-05-13T22:05:57.004Z,5.50
2019-05-13T22:08:27.601Z,5.70
2019-05-13T22:10:58.279Z,5.60
2019-05-13T22:13:31.370Z,5.50
2019-05-13T22:16:01.805Z,5.40
2019-05-13T22:18:32.339Z,5.30
2019-05-13T22:21:03.107Z,5.20
2019-05-13T22:23:33.820Z,5.20
2019-05-13T22:26:22.461Z,5.00
2019-05-13T22:29:09.467Z,4.80
2019-05-13T22:31:41.995Z,4.60
2019-05-13T22:34:12.837Z,4.50
2019-05-13T22:36:43.817Z,4.30
2019-05-13T22:39:14.514Z,4.30
2019-05-13T22:41:45.173Z,4.30
2019-05-13T22:44:15.932Z,4.10
2019-05-13T22:46:47.015Z,4.10
2019-05-13T22:49:17.724Z,4.10
2019-05-13T22:51:51.453Z,4.10
2019-05-13T22:54:22.169Z,4.00
2019-05-13T22:56:53.563Z,3.90
2019-05-13T22:59:24.370Z,3.90
2019-05-13T23:01:57.844Z,3.80
2019-05-13T23:04:28.584Z,4.00
2019-05-13T23:07:01.311Z,4.20
2019-05-13T23:09:32.300Z,4.20
2019-05-13T23:12:02.890Z,4.30
2019-05-13T23:14:35.143Z,4.40
2019-05-13T23:17:05.622Z,4.50
2019-05-13T23:19:36.178Z,4.50
2019-05-13T23:22:07.008Z,4.70
2019-05-13T23:24:37.834Z,4.80
2019-05-13T23:27:10.979Z,4.80
2019-05-13T23:29:41.360Z,4.90
2019-05-13T23:32:12.280Z,5.10
2019-05-13T23:34:43.057Z,5.20
2019-05-13T23:37:14.792Z,5.40
2019-05-13T23:39:45.549Z,5.40
2019-05-13T23:42:16.155Z,5.30
2019-05-13T23:44:47.827Z,5.40
2019-05-13T23:47:18.834Z,5.30
2019-05-13T23:49:51.213Z,5.50
2019-05-13T23:52:22.072Z,5.50
2019-05-13T23:54:52.751Z,5.60
2019-05-13T23:57:23.297Z,5.60
2019-05-13T23:59:54.154Z,5.50
